Time;durP1;ratioP1;P1;durP2;ratioP2;P2;SDS_P1;SDS_P2;PMS_P1;PMS_P2;Temp;Humidity;BMP_temperature;BMP_pressure;BME280_temperature;BME280_humidity;BME280_pressure;Samples;Min_cycle;Max_cycle;Signal;HPM_P1;HPM_P2
2022/02/16 00:00:13;;;;;;;17.00;12.47;;;;;21.50;99385.00;;;;2059845;28;20238;-72
2022/02/16 00:01:13;;;;;;;17.40;14.33;;;;;21.50;99392.00;;;;2059637;28;20293;-71
2022/02/16 00:02:14;;;;;;;16.03;13.00;;;;;21.40;99390.00;;;;2060437;28;20235;-71
2022/02/16 00:03:14;;;;;;;14.00;12.20;;;;;21.50;99388.00;;;;2060561;28;20251;-71
2022/02/16 00:04:14;;;;;;;14.83;12.27;;;;;21.50;99369.00;;;;2059258;28;20226;-72
2022/02/16 00:05:16;;;;;;;13.17;11.77;;;;;21.40;99377.00;;;;2060515;28;20251;-72
2022/02/16 00:06:16;;;;;;;15.88;12.52;;;;;21.40;99371.00;;;;2060454;28;20222;-71
2022/02/16 00:07:17;;;;;;;16.17;11.73;;;;;21.40;99370.00;;;;2061125;28;20746;-72
2022/02/16 00:08:17;;;;;;;14.00;11.00;;;;;21.40;99373.00;;;;2057781;28;20297;-72
2022/02/16 00:09:17;;;;;;;13.17;10.50;;;;;21.40;99362.00;;;;2062078;28;20251;-72
2022/02/16 00:10:18;;;;;;;14.30;11.60;;;;;21.40;99371.00;;;;2059659;28;20350;-72
2022/02/16 00:11:18;;;;;;;12.80;10.67;;;;;21.40;99366.00;;;;2059850;28;20212;-71
2022/02/16 00:12:18;;;;;;;12.27;9.87;;;;;21.40;99359.00;;;;2063648;28;20219;-72
2022/02/16 00:13:19;;;;;;;12.87;11.23;;;;;21.40;99363.00;;;;2060835;28;20359;-72
2022/02/16 00:14:19;;;;;;;10.90;9.43;;;;;21.40;99365.00;;;;2060741;28;20226;-72
2022/02/16 00:15:19;;;;;;;12.37;10.50;;;;;21.40;99353.00;;;;2054009;28;20253;-72
2022/02/16 00:16:20;;;;;;;10.57;8.90;;;;;21.40;99352.00;;;;2067587;28;20218;-72
2022/02/16 00:17:20;;;;;;;12.20;9.37;;;;;21.40;99354.00;;;;2064141;28;20239;-72
2022/02/16 00:18:20;;;;;;;11.63;10.03;;;;;21.40;99362.00;;;;2057350;28;20219;-72
2022/02/16 00:19:21;;;;;;;11.00;9.23;;;;;21.40;99342.00;;;;2059984;28;20231;-73
2022/02/16 00:20:22;;;;;;;10.07;8.77;;;;;21.40;99356.00;;;;2058362;28;20219;-72
2022/02/16 00:21:22;;;;;;;12.07;10.20;;;;;21.40;99353.00;;;;2060676;28;20219;-72
2022/02/16 00:22:22;;;;;;;10.87;9.67;;;;;21.40;99354.00;;;;2060909;28;20226;-72
2022/02/16 00:23:23;;;;;;;9.13;7.70;;;;;21.40;99354.00;;;;2059995;28;20215;-72
2022/02/16 00:24:23;;;;;;;9.00;7.73;;;;;21.40;99346.00;;;;2050471;28;20225;-72
2022/02/16 00:25:23;;;;;;;9.70;8.60;;;;;21.40;99343.00;;;;2067691;28;20218;-72
2022/02/16 00:26:24;;;;;;;9.90;8.20;;;;;21.40;99345.00;;;;2060557;28;20230;-72
2022/02/16 00:27:24;;;;;;;8.47;7.20;;;;;21.40;99342.00;;;;2060430;28;20302;-73
2022/02/16 00:28:24;;;;;;;8.80;7.73;;;;;21.40;99332.00;;;;2054947;28;20231;-72
2022/02/16 00:29:25;;;;;;;9.30;7.60;;;;;21.40;99337.00;;;;2060174;28;20485;-64
2022/02/16 00:30:25;;;;;;;9.17;7.30;;;;;21.40;99335.00;;;;2060503;28;20216;-67
2022/02/16 00:31:25;;;;;;;8.37;7.47;;;;;21.40;99334.00;;;;2060108;28;20228;-66
2022/02/16 00:32:26;;;;;;;7.20;6.47;;;;;21.40;99334.00;;;;2059785;28;20214;-70
2022/02/16 00:33:26;;;;;;;8.40;7.10;;;;;21.40;99335.00;;;;2060180;28;20215;-72
2022/02/16 00:34:26;;;;;;;8.87;7.40;;;;;21.40;99330.00;;;;2063828;28;20213;-72
2022/02/16 00:35:27;;;;;;;8.40;7.40;;;;;21.30;99340.00;;;;2065947;28;20559;-71
2022/02/16 00:36:27;;;;;;;9.63;7.37;;;;;21.40;99329.00;;;;2061443;28;20597;-72
2022/02/16 00:37:27;;;;;;;7.80;6.87;;;;;21.40;99327.00;;;;2060378;28;20317;-72
2022/02/16 00:38:27;;;;;;;7.67;6.40;;;;;21.40;99320.00;;;;2060966;28;20634;-72
2022/02/16 00:39:28;;;;;;;6.73;5.63;;;;;21.40;99336.00;;;;2061120;28;20746;-72
2022/02/16 00:40:28;;;;;;;7.87;6.23;;;;;21.40;99327.00;;;;2060727;28;20873;-72
2022/02/16 00:41:29;;;;;;;8.60;6.40;;;;;21.30;99320.00;;;;2060954;28;20217;-72
2022/02/16 00:42:30;;;;;;;7.20;5.65;;;;;21.30;99336.00;;;;2060116;28;20215;-72
2022/02/16 00:43:30;;;;;;;7.53;5.50;;;;;21.30;99322.00;;;;2060234;28;20298;-72
2022/02/16 00:44:31;;;;;;;8.23;5.73;;;;;21.30;99324.00;;;;2060085;28;20303;-72
2022/02/16 00:45:32;;;;;;;6.67;5.77;;;;;21.30;99311.00;;;;2060162;28;20843;-72
2022/02/16 00:46:33;;;;;;;8.05;5.88;;;;;21.30;99307.00;;;;2064347;28;20601;-72
2022/02/16 00:47:33;;;;;;;7.43;5.60;;;;;21.30;99307.00;;;;2058797;28;20223;-72
2022/02/16 00:48:33;;;;;;;7.03;5.63;;;;;21.40;99313.00;;;;2060968;28;20781;-72
2022/02/16 00:49:34;;;;;;;7.20;5.90;;;;;21.30;99298.00;;;;2061130;28;20750;-72
2022/02/16 00:50:34;;;;;;;6.87;5.60;;;;;21.30;99298.00;;;;2059331;28;20219;-72
2022/02/16 00:51:34;;;;;;;6.37;5.10;;;;;21.30;99297.00;;;;2059313;28;20217;-72
2022/02/16 00:52:35;;;;;;;8.17;5.40;;;;;21.30;99291.00;;;;2060136;28;20243;-72
2022/02/16 00:53:35;;;;;;;6.03;5.10;;;;;21.30;99291.00;;;;2060089;28;20220;-72
2022/02/16 00:54:37;;;;;;;5.27;4.77;;;;;21.30;99289.00;;;;2059831;28;20299;-72
2022/02/16 00:55:38;;;;;;;5.70;4.85;;;;;21.30;99278.00;;;;2060207;28;20227;-72
2022/02/16 00:56:40;;;;;;;5.30;4.73;;;;;21.30;99286.00;;;;2060239;28;20227;-71
2022/02/16 00:57:40;;;;;;;7.20;5.57;;;;;21.30;99287.00;;;;2060242;28;20598;-72
2022/02/16 00:58:41;;;;;;;5.53;4.87;;;;;21.30;99286.00;;;;2059726;28;20238;-72
2022/02/16 00:59:41;;;;;;;6.00;4.93;;;;;21.30;99289.00;;;;2059989;28;20211;-73
2022/02/16 01:00:42;;;;;;;5.87;4.93;;;;;21.30;99280.00;;;;2059855;28;20269;-72
2022/02/16 01:01:42;;;;;;;4.97;4.47;;;;;21.30;99282.00;;;;2060086;28;20228;-72
2022/02/16 01:02:43;;;;;;;6.53;4.70;;;;;21.30;99273.00;;;;2059834;28;20216;-71
2022/02/16 01:03:43;;;;;;;5.03;4.53;;;;;21.30;99284.00;;;;2060267;28;20835;-72
2022/02/16 01:04:43;;;;;;;6.07;4.50;;;;;21.30;99278.00;;;;2060704;28;20262;-71
2022/02/16 01:05:45;;;;;;;5.67;4.67;;;;;21.30;99280.00;;;;2060837;28;20207;-72
2022/02/16 01:06:45;;;;;;;4.70;4.20;;;;;21.30;99276.00;;;;2060217;28;20215;-71
2022/02/16 01:07:45;;;;;;;5.00;4.17;;;;;21.30;99270.00;;;;2059931;28;20206;-71
2022/02/16 01:08:46;;;;;;;5.00;4.50;;;;;21.30;99280.00;;;;2061908;28;20226;-72
2022/02/16 01:09:46;;;;;;;4.60;3.80;;;;;21.30;99268.00;;;;2060817;28;20253;-72
2022/02/16 01:10:46;;;;;;;4.23;3.47;;;;;21.20;99268.00;;;;2060231;28;20207;-71
2022/02/16 01:11:47;;;;;;;5.20;4.10;;;;;21.30;99272.00;;;;2060020;28;20210;-72
2022/02/16 01:12:47;;;;;;;4.50;3.93;;;;;21.30;99276.00;;;;2061772;28;20253;-72
2022/02/16 01:13:48;;;;;;;5.70;4.73;;;;;21.30;99210.00;;;;2059818;28;20247;-72
2022/02/16 01:14:48;;;;;;;4.87;3.70;;;;;21.30;99267.00;;;;2059753;28;20222;-72
2022/02/16 01:15:49;;;;;;;4.43;3.90;;;;;21.20;99266.00;;;;2060686;28;20459;-72
2022/02/16 01:16:49;;;;;;;4.63;4.20;;;;;21.20;99266.00;;;;2060832;28;20258;-72
2022/02/16 01:17:49;;;;;;;5.33;4.10;;;;;21.20;99272.00;;;;2060840;28;20211;-72
2022/02/16 01:18:50;;;;;;;3.90;3.43;;;;;21.20;99260.00;;;;2060676;28;20249;-72
2022/02/16 01:19:50;;;;;;;4.50;3.50;;;;;21.20;99267.00;;;;2059292;28;20206;-72
2022/02/16 01:20:50;;;;;;;3.60;3.03;;;;;21.20;99263.00;;;;2058716;28;20270;-72
2022/02/16 01:21:52;;;;;;;3.43;3.00;;;;;21.20;99261.00;;;;2059200;28;20210;-72
2022/02/16 01:22:53;;;;;;;3.75;3.00;;;;;21.20;99263.00;;;;2058024;28;20753;-72
2022/02/16 01:23:53;;;;;;;3.57;3.13;;;;;21.20;99262.00;;;;2059934;28;20289;-72
2022/02/16 01:24:53;;;;;;;4.07;2.90;;;;;21.00;99261.00;;;;2059813;28;20215;-72
2022/02/16 01:25:54;;;;;;;2.60;2.40;;;;;21.20;99253.00;;;;2059108;28;20253;-72
2022/02/16 01:26:54;;;;;;;4.00;3.23;;;;;21.20;99258.00;;;;2059157;28;20220;-72
2022/02/16 01:27:54;;;;;;;3.50;3.20;;;;;21.20;99259.00;;;;2060258;28;20234;-72
2022/02/16 01:28:55;;;;;;;3.90;3.37;;;;;21.20;99264.00;;;;2052466;28;20216;-72
2022/02/16 01:29:55;;;;;;;3.50;3.07;;;;;21.20;99251.00;;;;2060425;28;20727;-72
2022/02/16 01:30:55;;;;;;;3.20;2.63;;;;;21.20;99253.00;;;;2060260;28;20706;-71
2022/02/16 01:31:55;;;;;;;3.60;2.83;;;;;21.20;99249.00;;;;2060379;28;20695;-72
2022/02/16 01:32:56;;;;;;;3.13;2.73;;;;;21.20;99241.00;;;;2059886;28;20222;-72
2022/02/16 01:33:56;;;;;;;3.07;2.37;;;;;21.20;99248.00;;;;2059974;28;20218;-72
2022/02/16 01:34:56;;;;;;;3.80;3.03;;;;;21.20;99241.00;;;;2059796;28;20234;-72
2022/02/16 01:35:57;;;;;;;3.27;2.97;;;;;21.20;99247.00;;;;2063164;28;20214;-72
2022/02/16 01:36:57;;;;;;;3.00;2.70;;;;;21.20;99240.00;;;;2060566;28;20715;-72
2022/02/16 01:37:57;;;;;;;2.80;2.20;;;;;21.20;99234.00;;;;2060678;28;20648;-72
2022/02/16 01:38:58;;;;;;;3.57;2.70;;;;;21.20;99242.00;;;;2060408;28;20702;-72
2022/02/16 01:39:58;;;;;;;3.10;2.80;;;;;21.20;99227.00;;;;2060612;28;20697;-72
2022/02/16 01:40:58;;;;;;;3.17;2.80;;;;;21.20;99226.00;;;;2059672;28;20697;-72
2022/02/16 01:41:59;;;;;;;3.33;2.27;;;;;21.20;99224.00;;;;2059719;28;20257;-72
2022/02/16 01:43:00;;;;;;;2.70;2.37;;;;;21.20;99226.00;;;;2059626;28;20211;-72
2022/02/16 01:44:00;;;;;;;3.70;2.60;;;;;21.20;99216.00;;;;2059638;28;20746;-72
2022/02/16 01:45:00;;;;;;;3.20;2.50;;;;;21.00;99220.00;;;;2061130;28;20257;-72
2022/02/16 01:46:01;;;;;;;3.10;2.40;;;;;21.20;99219.00;;;;2060302;28;20223;-72
2022/02/16 01:47:04;;;;;;;2.93;2.53;;;;;21.10;99216.00;;;;2060446;28;20246;-72
2022/02/16 01:48:05;;;;;;;4.07;2.90;;;;;21.10;99217.00;;;;2060365;28;20215;-72
2022/02/16 01:49:05;;;;;;;2.27;2.07;;;;;21.20;99214.00;;;;2059953;28;20697;-72
2022/02/16 01:50:06;;;;;;;2.40;2.20;;;;;21.20;99207.00;;;;2059688;28;20223;-71
2022/02/16 01:51:06;;;;;;;2.92;2.60;;;;;21.20;99208.00;;;;2059230;28;20219;-69
2022/02/16 01:52:08;;;;;;;4.60;2.13;;;;;21.20;99219.00;;;;2059471;28;20218;-70
2022/02/16 01:53:08;;;;;;;2.20;1.95;;;;;21.20;99213.00;;;;2059429;28;20212;-71
2022/02/16 01:54:09;;;;;;;2.00;1.80;;;;;21.10;99216.00;;;;2059788;28;20262;-71
2022/02/16 01:55:10;;;;;;;2.97;2.20;;;;;21.20;99219.00;;;;2067545;28;20762;-72
2022/02/16 01:56:11;;;;;;;2.20;1.80;;;;;21.20;99217.00;;;;2059719;28;20262;-72
2022/02/16 01:57:11;;;;;;;2.43;2.23;;;;;21.10;99207.00;;;;2058585;28;20442;-72
2022/02/16 01:58:12;;;;;;;2.97;2.10;;;;;21.10;99205.00;;;;2050463;28;20451;-72
2022/02/16 01:59:18;;;;;;;2.10;1.90;;;;;21.10;99209.00;;;;2043033;28;20212;-72
2022/02/16 02:00:18;;;;;;;2.13;1.60;;;;;21.10;99210.00;;;;2059061;28;20215;-72
2022/02/16 02:01:19;;;;;;;2.40;1.77;;;;;21.10;99207.00;;;;2060379;28;20215;-71
2022/02/16 02:02:19;;;;;;;2.87;1.87;;;;;21.10;99203.00;;;;2060446;28;20216;-72
2022/02/16 02:03:20;;;;;;;1.90;1.70;;;;;21.10;99206.00;;;;2060283;28;20214;-72
2022/02/16 02:04:23;;;;;;;2.70;2.00;;;;;21.10;99206.00;;;;2060260;28;20299;-72
2022/02/16 02:05:23;;;;;;;2.70;1.88;;;;;21.10;99195.00;;;;2059546;28;20210;-72
2022/02/16 02:06:24;;;;;;;2.17;1.90;;;;;21.10;99196.00;;;;2059396;28;20215;-72
2022/02/16 02:07:24;;;;;;;2.60;2.17;;;;;21.10;99178.00;;;;2059537;28;20234;-72
2022/02/16 02:08:25;;;;;;;1.90;1.63;;;;;21.10;99193.00;;;;2058919;28;20220;-72
2022/02/16 02:09:25;;;;;;;1.70;1.60;;;;;21.10;99189.00;;;;2059416;28;20212;-72
2022/02/16 02:10:26;;;;;;;2.30;1.50;;;;;21.10;99191.00;;;;2059608;28;20454;-72
2022/02/16 02:11:26;;;;;;;2.10;1.70;;;;;21.10;99186.00;;;;2058258;28;20568;-72
2022/02/16 02:12:26;;;;;;;2.23;1.57;;;;;21.10;99178.00;;;;2060902;28;20214;-72
2022/02/16 02:13:27;;;;;;;1.77;1.27;;;;;21.10;99183.00;;;;2059534;28;20234;-72
2022/02/16 02:14:27;;;;;;;1.90;1.67;;;;;21.10;99183.00;;;;2059384;28;20238;-72
2022/02/16 02:15:27;;;;;;;1.63;1.30;;;;;21.10;99179.00;;;;2059124;28;20216;-72
2022/02/16 02:16:28;;;;;;;1.80;1.40;;;;;21.10;99177.00;;;;2054656;28;20220;-72
2022/02/16 02:17:28;;;;;;;2.50;1.40;;;;;21.10;99179.00;;;;2060197;28;20247;-72
2022/02/16 02:18:28;;;;;;;2.00;1.60;;;;;21.10;99178.00;;;;2060231;28;20255;-72
2022/02/16 02:19:29;;;;;;;1.77;1.60;;;;;21.10;99187.00;;;;2060248;28;20215;-72
2022/02/16 02:20:30;;;;;;;2.03;1.63;;;;;21.10;99171.00;;;;2060126;28;20211;-72
2022/02/16 02:21:30;;;;;;;1.80;1.60;;;;;21.10;99163.00;;;;2059468;28;20246;-72
2022/02/16 02:22:30;;;;;;;2.23;1.70;;;;;21.10;99168.00;;;;2059525;28;20222;-72
2022/02/16 02:23:31;;;;;;;2.03;1.47;;;;;21.00;99167.00;;;;2059520;28;20249;-71
2022/02/16 02:24:31;;;;;;;2.57;1.73;;;;;21.00;99166.00;;;;2059463;28;20234;-72
2022/02/16 02:25:47;;;;;;;1.83;1.40;;;;;21.10;99167.00;;;;2059600;28;20224;-72
2022/02/16 02:26:48;;;;;;;1.60;1.25;;;;;21.10;99166.00;;;;2067633;28;20210;-72
2022/02/16 02:27:48;;;;;;;1.40;1.30;;;;;21.10;99142.00;;;;2067039;28;20738;-72
2022/02/16 02:28:49;;;;;;;1.80;1.60;;;;;21.00;99156.00;;;;2059454;28;20215;-72
2022/02/16 02:29:49;;;;;;;2.27;1.33;;;;;21.00;99147.00;;;;2059406;28;20722;-71
2022/02/16 02:30:50;;;;;;;1.53;1.30;;;;;21.00;99150.00;;;;2058993;28;20224;-72
2022/02/16 02:31:50;;;;;;;1.53;1.40;;;;;21.10;99147.00;;;;2059840;28;20713;-72
2022/02/16 02:32:51;;;;;;;2.60;1.40;;;;;21.00;99149.00;;;;2060322;28;20212;-72
2022/02/16 02:33:51;;;;;;;1.42;1.17;;;;;21.00;99151.00;;;;2060221;28;20302;-73
2022/02/16 02:34:53;;;;;;;1.40;1.30;;;;;21.00;99147.00;;;;2059626;28;20219;-72
2022/02/16 02:35:53;;;;;;;1.10;1.00;;;;;21.00;99147.00;;;;2059751;28;20683;-72
2022/02/16 02:36:54;;;;;;;1.43;1.00;;;;;21.00;99147.00;;;;2059910;28;20212;-72
2022/02/16 02:37:54;;;;;;;1.50;1.20;;;;;21.00;99137.00;;;;2059541;28;20215;-72
2022/02/16 02:38:54;;;;;;;2.20;1.20;;;;;21.00;99139.00;;;;2059474;28;20238;-72
2022/02/16 02:39:55;;;;;;;1.57;0.97;;;;;21.00;99133.00;;;;2059285;28;20217;-72
2022/02/16 02:40:56;;;;;;;1.40;1.00;;;;;21.00;99137.00;;;;2058356;28;20211;-72
2022/02/16 02:41:57;;;;;;;1.88;1.15;;;;;21.00;99136.00;;;;2066631;28;20222;-72
2022/02/16 02:42:57;;;;;;;1.50;1.10;;;;;21.00;99128.00;;;;2066788;28;20246;-72
2022/02/16 02:43:58;;;;;;;1.30;1.00;;;;;21.00;99125.00;;;;2059575;28;20215;-72
2022/02/16 02:44:59;;;;;;;1.52;1.10;;;;;21.00;99128.00;;;;2061821;28;20195;-72
2022/02/16 02:46:01;;;;;;;1.90;0.90;;;;;21.00;99130.00;;;;2051189;28;20541;-73
2022/02/16 02:47:02;;;;;;;1.40;0.90;;;;;21.00;99132.00;;;;2043867;28;20208;-72
2022/02/16 02:48:02;;;;;;;1.67;1.25;;;;;21.00;99134.00;;;;2058959;28;20214;-72
2022/02/16 02:49:03;;;;;;;1.50;1.30;;;;;21.00;99128.00;;;;2059402;28;20203;-72
2022/02/16 02:50:04;;;;;;;1.00;0.80;;;;;21.00;99121.00;;;;2059428;28;20256;-72
2022/02/16 02:51:04;;;;;;;1.10;1.00;;;;;21.00;99126.00;;;;2059212;28;20210;-72
2022/02/16 02:52:05;;;;;;;2.40;1.30;;;;;21.00;99122.00;;;;2059430;28;20223;-72
2022/02/16 02:53:05;;;;;;;1.37;0.97;;;;;21.00;99110.00;;;;2059875;28;20258;-72
2022/02/16 02:54:05;;;;;;;0.90;0.73;;;;;21.00;99118.00;;;;2058891;28;20232;-72
2022/02/16 02:55:08;;;;;;;1.00;0.80;;;;;21.00;99112.00;;;;2060062;28;20207;-71
2022/02/16 02:56:08;;;;;;;1.60;1.30;;;;;21.00;99111.00;;;;2059729;28;20355;-71
2022/02/16 02:57:08;;;;;;;1.00;0.77;;;;;21.00;99127.00;;;;2059373;28;20686;-72
2022/02/16 02:58:09;;;;;;;1.63;0.90;;;;;21.00;99113.00;;;;2058207;28;20211;-72
2022/02/16 02:59:09;;;;;;;1.30;0.80;;;;;21.00;99110.00;;;;2058674;28;20261;-72
2022/02/16 03:00:10;;;;;;;1.70;1.17;;;;;21.00;99101.00;;;;2058782;28;20285;-72
2022/02/16 03:01:11;;;;;;;1.17;0.77;;;;;21.00;99107.00;;;;2059058;28;20222;-72
2022/02/16 03:02:11;;;;;;;0.87;0.70;;;;;21.00;99096.00;;;;2059459;28;20216;-72
2022/02/16 03:03:11;;;;;;;1.20;0.97;;;;;21.00;99104.00;;;;2059123;28;20277;-72
2022/02/16 03:04:12;;;;;;;1.23;1.03;;;;;21.00;99104.00;;;;2059810;28;20235;-72
2022/02/16 03:05:12;;;;;;;1.40;0.80;;;;;21.00;99111.00;;;;2059359;28;20214;-72
2022/02/16 03:06:12;;;;;;;1.30;0.73;;;;;21.00;99113.00;;;;2059311;28;20207;-72
2022/02/16 03:07:13;;;;;;;1.50;1.00;;;;;21.00;99104.00;;;;2059158;28;20210;-72
2022/02/16 03:08:13;;;;;;;1.97;0.90;;;;;21.00;99100.00;;;;2059307;28;20227;-72
2022/02/16 03:09:13;;;;;;;1.03;0.80;;;;;21.00;99108.00;;;;2062677;28;20266;-72
2022/02/16 03:10:14;;;;;;;1.20;0.80;;;;;21.00;99103.00;;;;2059239;28;20246;-72
2022/02/16 03:11:19;;;;;;;1.37;0.80;;;;;21.00;99103.00;;;;2058340;28;20609;-72
2022/02/16 03:12:19;;;;;;;2.65;1.00;;;;;21.00;99089.00;;;;2061892;28;20210;-72
2022/02/16 03:13:20;;;;;;;1.13;1.00;;;;;21.00;99099.00;;;;2060152;28;20210;-72
2022/02/16 03:14:20;;;;;;;1.00;0.70;;;;;21.00;99092.00;;;;2059880;28;20222;-71
2022/02/16 03:15:20;;;;;;;1.00;0.63;;;;;20.90;99081.00;;;;2059843;28;20219;-72
2022/02/16 03:16:21;;;;;;;1.47;0.80;;;;;20.90;99086.00;;;;2059929;28;20242;-72
2022/02/16 03:17:21;;;;;;;2.37;0.70;;;;;21.00;99078.00;;;;2059148;28;20211;-72
2022/02/16 03:18:21;;;;;;;1.00;0.60;;;;;21.00;99091.00;;;;2059105;28;20273;-72
2022/02/16 03:19:22;;;;;;;1.03;0.70;;;;;21.00;99092.00;;;;2058631;28;20211;-72
2022/02/16 03:20:23;;;;;;;1.10;0.73;;;;;21.00;99100.00;;;;2058236;28;20211;-72
2022/02/16 03:21:23;;;;;;;1.33;0.70;;;;;20.90;99090.00;;;;2059720;28;20506;-72
2022/02/16 03:22:23;;;;;;;1.20;0.90;;;;;21.00;99094.00;;;;2060938;28;20238;-72
2022/02/16 03:23:24;;;;;;;0.80;0.57;;;;;20.90;99091.00;;;;2061076;28;20240;-72
2022/02/16 03:24:24;;;;;;;1.20;0.70;;;;;20.90;99096.00;;;;2060843;28;20275;-72
2022/02/16 03:25:24;;;;;;;1.23;0.70;;;;;21.00;99087.00;;;;2061248;28;20231;-72
2022/02/16 03:26:25;;;;;;;0.80;0.50;;;;;20.90;99083.00;;;;2061512;28;20222;-72
2022/02/16 03:27:25;;;;;;;1.20;0.63;;;;;20.90;99092.00;;;;2061688;28;20207;-72
2022/02/16 03:28:25;;;;;;;1.17;0.67;;;;;20.90;99082.00;;;;2061627;28;20698;-72
2022/02/16 03:29:26;;;;;;;1.63;0.90;;;;;20.90;99093.00;;;;2061189;28;20237;-72
2022/02/16 03:30:26;;;;;;;1.20;0.90;;;;;20.90;99081.00;;;;2060600;28;20266;-72
2022/02/16 03:31:26;;;;;;;1.37;0.70;;;;;20.90;99088.00;;;;2060612;28;20215;-71
2022/02/16 03:32:27;;;;;;;1.70;0.70;;;;;20.90;99085.00;;;;2060893;28;20207;-72
2022/02/16 03:33:28;;;;;;;1.30;0.70;;;;;20.90;99075.00;;;;2060777;28;20219;-71
2022/02/16 03:34:28;;;;;;;1.88;0.60;;;;;20.90;99080.00;;;;2064244;28;20273;-72
2022/02/16 03:35:28;;;;;;;1.00;0.70;;;;;20.90;99069.00;;;;2060683;28;20280;-72
2022/02/16 03:36:29;;;;;;;1.33;0.80;;;;;20.90;99072.00;;;;2062022;28;20586;-72
2022/02/16 03:37:29;;;;;;;1.10;0.70;;;;;20.90;99069.00;;;;2060769;28;20223;-72
2022/02/16 03:38:29;;;;;;;0.80;0.70;;;;;20.90;99071.00;;;;2060548;28;20243;-72
2022/02/16 03:39:30;;;;;;;0.97;0.83;;;;;20.90;99064.00;;;;2061567;28;20239;-72
2022/02/16 03:40:31;;;;;;;0.80;0.60;;;;;20.90;99063.00;;;;2060570;28;20216;-72
2022/02/16 03:41:31;;;;;;;0.83;0.60;;;;;20.90;99061.00;;;;2060801;28;20537;-71
2022/02/16 03:42:32;;;;;;;1.13;0.80;;;;;20.90;99062.00;;;;2060793;28;20445;-72
2022/02/16 03:43:32;;;;;;;0.83;0.70;;;;;20.90;99065.00;;;;2060733;28;20207;-72
2022/02/16 03:44:32;;;;;;;0.97;0.70;;;;;20.90;99050.00;;;;2060240;28;20292;-72
2022/02/16 03:45:32;;;;;;;1.20;0.70;;;;;20.80;99059.00;;;;2061316;28;20219;-72
2022/02/16 03:46:33;;;;;;;1.20;0.70;;;;;20.80;99052.00;;;;2060734;28;20297;-71
2022/02/16 03:47:33;;;;;;;0.80;0.60;;;;;20.90;99054.00;;;;2061493;28;20220;-72
2022/02/16 03:48:34;;;;;;;0.80;0.70;;;;;20.90;99067.00;;;;2061228;28;20230;-72
2022/02/16 03:49:34;;;;;;;0.83;0.60;;;;;20.90;99049.00;;;;2061453;28;20282;-72
2022/02/16 03:50:34;;;;;;;1.00;0.67;;;;;20.90;99048.00;;;;2061077;28;20250;-71
2022/02/16 03:51:35;;;;;;;0.80;0.50;;;;;20.80;99060.00;;;;2060638;28;20215;-71
2022/02/16 03:52:35;;;;;;;1.00;0.70;;;;;20.90;99054.00;;;;2060652;28;20221;-72
2022/02/16 03:53:35;;;;;;;2.27;0.60;;;;;20.80;99054.00;;;;2060482;28;20245;-71
2022/02/16 03:54:36;;;;;;;0.80;0.50;;;;;20.80;99038.00;;;;2060437;28;20628;-71
2022/02/16 03:55:36;;;;;;;1.00;0.60;;;;;20.90;99035.00;;;;2061121;28;20219;-72
2022/02/16 03:56:36;;;;;;;0.80;0.50;;;;;20.90;99044.00;;;;2059854;28;20650;-71
2022/02/16 03:57:37;;;;;;;1.43;0.60;;;;;20.90;99043.00;;;;2060565;28;20590;-72
2022/02/16 03:58:37;;;;;;;0.70;0.50;;;;;20.90;99050.00;;;;2060326;28;20738;-72
2022/02/16 03:59:37;;;;;;;1.27;0.80;;;;;20.80;99039.00;;;;2060916;28;20676;-72
2022/02/16 04:00:37;;;;;;;1.00;0.60;;;;;20.90;99040.00;;;;2060905;28;20718;-72
2022/02/16 04:01:38;;;;;;;1.07;0.50;;;;;20.80;99035.00;;;;2061028;28;20207;-71
2022/02/16 04:02:38;;;;;;;1.27;0.80;;;;;20.90;99036.00;;;;2061364;28;20222;-71
2022/02/16 04:03:39;;;;;;;0.80;0.60;;;;;20.80;99040.00;;;;2061023;28;20238;-71
2022/02/16 04:04:39;;;;;;;0.80;0.53;;;;;20.80;99032.00;;;;2060527;28;20219;-72
2022/02/16 04:05:41;;;;;;;0.90;0.73;;;;;20.80;99037.00;;;;2060513;28;20246;-71
2022/02/16 04:06:42;;;;;;;0.80;0.63;;;;;20.80;99035.00;;;;2060370;28;20594;-72
2022/02/16 04:07:42;;;;;;;1.10;0.60;;;;;20.80;99036.00;;;;2060748;28;20269;-71
2022/02/16 04:08:43;;;;;;;1.17;0.50;;;;;20.90;99040.00;;;;2062793;28;20215;-71
2022/02/16 04:09:43;;;;;;;1.00;0.60;;;;;20.80;99027.00;;;;2061295;28;20270;-71
2022/02/16 04:10:44;;;;;;;1.30;0.73;;;;;20.80;99020.00;;;;2061063;28;21004;-70
2022/02/16 04:11:44;;;;;;;1.57;0.70;;;;;20.80;99021.00;;;;2061236;28;20214;-71
2022/02/16 04:12:44;;;;;;;1.00;0.60;;;;;20.80;99023.00;;;;2062859;28;20276;-71
2022/02/16 04:13:45;;;;;;;0.90;0.70;;;;;20.80;99017.00;;;;2060520;28;20226;-71
2022/02/16 04:14:45;;;;;;;0.87;0.57;;;;;20.80;99014.00;;;;2060385;28;20207;-71
2022/02/16 04:15:45;;;;;;;1.10;0.50;;;;;20.80;99024.00;;;;2060379;28;20223;-72
2022/02/16 04:16:46;;;;;;;0.90;0.70;;;;;20.80;99016.00;;;;2060886;28;20219;-71
2022/02/16 04:17:46;;;;;;;0.70;0.50;;;;;20.80;99020.00;;;;2059234;28;20227;-71
2022/02/16 04:18:47;;;;;;;0.80;0.50;;;;;20.80;99015.00;;;;2058815;28;20285;-72
2022/02/16 04:19:47;;;;;;;1.10;0.50;;;;;20.80;99008.00;;;;2060398;28;20258;-72
2022/02/16 04:20:47;;;;;;;0.90;0.50;;;;;20.80;99007.00;;;;2060399;28;20219;-72
2022/02/16 04:21:48;;;;;;;1.67;0.67;;;;;20.80;99001.00;;;;2060949;28;20223;-72
2022/02/16 04:22:50;;;;;;;1.00;0.67;;;;;20.80;99014.00;;;;2061229;28;20223;-72
2022/02/16 04:23:50;;;;;;;0.80;0.50;;;;;20.80;99006.00;;;;2061152;28;20293;-71
2022/02/16 04:24:50;;;;;;;1.30;0.60;;;;;20.80;99009.00;;;;2060437;28;20214;-72
2022/02/16 04:25:51;;;;;;;0.80;0.70;;;;;20.80;99008.00;;;;2059713;28;20218;-72
2022/02/16 04:26:51;;;;;;;1.20;0.50;;;;;20.80;99002.00;;;;2059551;28;20722;-72
2022/02/16 04:27:51;;;;;;;0.83;0.67;;;;;20.80;99015.00;;;;2060281;28;20219;-72
2022/02/16 04:28:52;;;;;;;0.80;0.50;;;;;20.80;98996.00;;;;2060513;28;20305;-72
2022/02/16 04:29:52;;;;;;;0.80;0.60;;;;;20.80;99008.00;;;;2060980;28;20223;-72
2022/02/16 04:30:52;;;;;;;1.10;0.70;;;;;20.80;99016.00;;;;2060687;28;20212;-72
2022/02/16 04:31:53;;;;;;;0.90;0.60;;;;;20.80;99012.00;;;;2061073;28;20210;-72
2022/02/16 04:32:53;;;;;;;0.93;0.60;;;;;20.80;99005.00;;;;2060362;28;20695;-72
2022/02/16 04:33:53;;;;;;;0.70;0.50;;;;;20.80;98995.00;;;;2063937;28;20581;-72
2022/02/16 04:34:54;;;;;;;0.77;0.53;;;;;20.80;98997.00;;;;2060296;28;20753;-72
2022/02/16 04:35:54;;;;;;;1.30;0.63;;;;;20.80;98998.00;;;;2054611;28;20230;-72
2022/02/16 04:36:54;;;;;;;1.10;0.70;;;;;20.80;98999.00;;;;2063593;28;20218;-72
2022/02/16 04:37:55;;;;;;;0.70;0.53;;;;;20.80;99001.00;;;;2063490;28;20675;-72
2022/02/16 04:38:56;;;;;;;0.70;0.40;;;;;20.80;98995.00;;;;2062713;28;20629;-72
2022/02/16 04:39:57;;;;;;;0.88;0.55;;;;;20.80;98987.00;;;;2059662;28;20253;-72
2022/02/16 04:40:57;;;;;;;1.80;0.60;;;;;20.80;98992.00;;;;2059589;28;20751;-72
2022/02/16 04:41:58;;;;;;;1.80;0.60;;;;;20.80;98985.00;;;;2060270;28;20459;-72
2022/02/16 04:42:58;;;;;;;1.07;0.50;;;;;20.80;98991.00;;;;2060545;28;20215;-72
2022/02/16 04:43:59;;;;;;;0.80;0.50;;;;;20.80;98981.00;;;;2060676;28;20234;-72
2022/02/16 04:44:59;;;;;;;0.83;0.50;;;;;20.80;98975.00;;;;2060585;28;20629;-71
2022/02/16 04:45:59;;;;;;;0.80;0.50;;;;;20.80;98975.00;;;;2061005;28;20592;-72
2022/02/16 04:47:00;;;;;;;1.00;0.50;;;;;20.80;98979.00;;;;2060898;28;20707;-71
2022/02/16 04:48:00;;;;;;;1.17;0.40;;;;;20.70;98971.00;;;;2060986;28;20690;-71
2022/02/16 04:49:00;;;;;;;0.93;0.50;;;;;20.70;98971.00;;;;2061064;28;20217;-72
2022/02/16 04:50:01;;;;;;;1.50;0.50;;;;;20.70;98980.00;;;;2060873;28;20211;-71
2022/02/16 04:51:01;;;;;;;0.70;0.50;;;;;20.80;98981.00;;;;2059943;28;20214;-71
2022/02/16 04:52:02;;;;;;;2.07;0.50;;;;;20.70;98964.00;;;;2060094;28;20752;-72
2022/02/16 04:53:03;;;;;;;1.23;0.55;;;;;20.70;98967.00;;;;2059226;28;20330;-68
2022/02/16 04:54:03;;;;;;;0.90;0.50;;;;;20.70;98964.00;;;;2058748;28;20211;-70
2022/02/16 04:55:05;;;;;;;1.03;0.50;;;;;20.70;98957.00;;;;2060769;28;20298;-70
2022/02/16 04:56:06;;;;;;;0.80;0.50;;;;;20.80;98962.00;;;;2060226;28;20207;-71
2022/02/16 04:57:06;;;;;;;0.70;0.50;;;;;20.70;98961.00;;;;2059707;28;20211;-71
2022/02/16 04:58:07;;;;;;;0.87;0.50;;;;;20.80;98957.00;;;;2060723;28;20454;-72
2022/02/16 04:59:07;;;;;;;0.80;0.60;;;;;20.70;98954.00;;;;2059736;28;20760;-72
2022/02/16 05:00:08;;;;;;;0.90;0.50;;;;;20.70;98947.00;;;;2059349;28;20278;-72
2022/02/16 05:01:08;;;;;;;1.33;0.60;;;;;20.80;98939.00;;;;2059062;28;20215;-71
2022/02/16 05:02:09;;;;;;;0.67;0.50;;;;;20.80;98941.00;;;;2060027;28;20501;-72